sensor_id;sensor_type;location;lat;lon;timestamp;P1;durP1;ratioP1;P2;durP2;ratioP2
5339;SDS011;2692;48.848;8.924;2022-10-14T00:00:54;3.40;;;1.80;;
5339;SDS011;2692;48.848;8.924;2022-10-14T00:03:25;6.83;;;2.33;;
5339;SDS011;2692;48.848;8.924;2022-10-14T00:05:50;2.27;;;1.90;;
5339;SDS011;2692;48.848;8.924;2022-10-14T00:08:22;4.73;;;1.60;;
5339;SDS011;2692;48.848;8.924;2022-10-14T00:10:47;2.70;;;1.90;;
5339;SDS011;2692;48.848;8.924;2022-10-14T00:13:13;3.47;;;1.90;;
5339;SDS011;2692;48.848;8.924;2022-10-14T00:15:39;2.80;;;2.00;;
5339;SDS011;2692;48.848;8.924;2022-10-14T00:18:05;5.57;;;2.57;;
5339;SDS011;2692;48.848;8.924;2022-10-14T00:20:31;9.97;;;2.67;;
5339;SDS011;2692;48.848;8.924;2022-10-14T00:22:56;2.80;;;1.87;;
5339;SDS011;2692;48.848;8.924;2022-10-14T00:25:21;3.60;;;2.07;;
5339;SDS011;2692;48.848;8.924;2022-10-14T00:27:47;3.37;;;1.80;;
5339;SDS011;2692;48.848;8.924;2022-10-14T00:30:12;4.00;;;1.60;;
5339;SDS011;2692;48.848;8.924;2022-10-14T09:50:52;3.60;;;2.07;;
5339;SDS011;2692;48.848;8.924;2022-10-14T09:55:54;7.93;;;3.33;;
5339;SDS011;2692;48.848;8.924;2022-10-14T09:58:29;10.60;;;2.23;;
5339;SDS011;2692;48.848;8.924;2022-10-14T10:00:57;13.90;;;2.90;;
5339;SDS011;2692;48.848;8.924;2022-10-14T10:03:28;9.50;;;2.93;;
5339;SDS011;2692;48.848;8.924;2022-10-14T10:06:04;4.40;;;2.23;;
5339;SDS011;2692;48.848;8.924;2022-10-14T10:08:31;9.03;;;4.10;;
5339;SDS011;2692;48.848;8.924;2022-10-14T10:13:30;3.20;;;1.90;;
5339;SDS011;2692;48.848;8.924;2022-10-14T10:16:05;4.73;;;1.87;;
5339;SDS011;2692;48.848;8.924;2022-10-14T10:18:31;10.60;;;2.40;;
5339;SDS011;2692;48.848;8.924;2022-10-14T10:21:13;4.93;;;2.60;;
5339;SDS011;2692;48.848;8.924;2022-10-14T10:23:48;10.70;;;2.90;;
5339;SDS011;2692;48.848;8.924;2022-10-14T10:26:19;7.97;;;2.50;;
5339;SDS011;2692;48.848;8.924;2022-10-14T10:28:53;5.33;;;2.50;;
5339;SDS011;2692;48.848;8.924;2022-10-14T10:36:38;24.13;;;2.20;;
5339;SDS011;2692;48.848;8.924;2022-10-14T10:39:17;5.30;;;1.87;;
5339;SDS011;2692;48.848;8.924;2022-10-14T10:42:00;5.23;;;2.37;;
5339;SDS011;2692;48.848;8.924;2022-10-14T10:44:40;3.70;;;2.00;;
5339;SDS011;2692;48.848;8.924;2022-10-14T10:50:15;3.13;;;1.67;;
5339;SDS011;2692;48.848;8.924;2022-10-14T10:53:04;3.93;;;2.40;;
5339;SDS011;2692;48.848;8.924;2022-10-14T11:06:39;4.60;;;1.60;;
5339;SDS011;2692;48.848;8.924;2022-10-14T11:15:01;3.40;;;1.63;;
5339;SDS011;2692;48.848;8.924;2022-10-14T11:17:42;4.70;;;1.50;;
5339;SDS011;2692;48.848;8.924;2022-10-14T11:23:30;3.80;;;1.67;;
5339;SDS011;2692;48.848;8.924;2022-10-14T11:26:02;2.40;;;1.57;;
5339;SDS011;2692;48.848;8.924;2022-10-14T11:28:54;3.57;;;2.20;;
5339;SDS011;2692;48.848;8.924;2022-10-14T11:31:57;1.97;;;1.50;;
5339;SDS011;2692;48.848;8.924;2022-10-14T11:34:43;5.23;;;2.07;;
5339;SDS011;2692;48.848;8.924;2022-10-14T11:40:13;3.33;;;1.60;;
5339;SDS011;2692;48.848;8.924;2022-10-14T11:48:23;3.63;;;2.20;;
5339;SDS011;2692;48.848;8.924;2022-10-14T11:51:25;3.80;;;1.60;;
5339;SDS011;2692;48.848;8.924;2022-10-14T11:53:52;3.27;;;1.80;;
5339;SDS011;2692;48.848;8.924;2022-10-14T11:59:25;5.43;;;2.17;;
5339;SDS011;2692;48.848;8.924;2022-10-14T12:02:02;4.10;;;1.77;;
5339;SDS011;2692;48.848;8.924;2022-10-14T12:04:37;3.50;;;1.73;;
5339;SDS011;2692;48.848;8.924;2022-10-14T12:07:15;2.80;;;1.30;;
5339;SDS011;2692;48.848;8.924;2022-10-14T12:12:49;1.77;;;1.00;;
5339;SDS011;2692;48.848;8.924;2022-10-14T12:15:17;17.13;;;1.57;;
5339;SDS011;2692;48.848;8.924;2022-10-14T12:17:46;10.10;;;2.17;;
5339;SDS011;2692;48.848;8.924;2022-10-14T12:20:18;3.33;;;1.70;;
5339;SDS011;2692;48.848;8.924;2022-10-14T12:22:49;2.10;;;1.10;;
5339;SDS011;2692;48.848;8.924;2022-10-14T12:25:15;5.77;;;0.87;;
5339;SDS011;2692;48.848;8.924;2022-10-14T12:27:41;5.00;;;1.33;;
5339;SDS011;2692;48.848;8.924;2022-10-14T12:30:49;6.23;;;1.07;;
5339;SDS011;2692;48.848;8.924;2022-10-14T12:33:01;2.23;;;0.90;;
5339;SDS011;2692;48.848;8.924;2022-10-14T12:35:47;2.37;;;1.00;;
5339;SDS011;2692;48.848;8.924;2022-10-14T12:38:16;2.60;;;1.20;;
5339;SDS011;2692;48.848;8.924;2022-10-14T12:40:43;2.30;;;1.13;;
5339;SDS011;2692;48.848;8.924;2022-10-14T12:45:45;4.43;;;2.03;;
5339;SDS011;2692;48.848;8.924;2022-10-14T12:48:13;5.60;;;1.50;;
5339;SDS011;2692;48.848;8.924;2022-10-14T12:51:08;6.47;;;1.33;;
5339;SDS011;2692;48.848;8.924;2022-10-14T12:53:35;1.87;;;0.83;;
5339;SDS011;2692;48.848;8.924;2022-10-14T12:56:03;3.17;;;1.43;;
5339;SDS011;2692;48.848;8.924;2022-10-14T12:58:29;3.53;;;0.97;;
5339;SDS011;2692;48.848;8.924;2022-10-14T13:00:58;3.57;;;1.03;;
5339;SDS011;2692;48.848;8.924;2022-10-14T13:03:31;2.50;;;0.70;;
5339;SDS011;2692;48.848;8.924;2022-10-14T13:14:27;1.50;;;0.57;;
5339;SDS011;2692;48.848;8.924;2022-10-14T13:22:02;2.53;;;0.93;;
5339;SDS011;2692;48.848;8.924;2022-10-14T13:24:34;3.47;;;1.23;;
5339;SDS011;2692;48.848;8.924;2022-10-14T13:27:13;2.00;;;0.77;;
5339;SDS011;2692;48.848;8.924;2022-10-14T13:29:51;1.50;;;0.70;;
5339;SDS011;2692;48.848;8.924;2022-10-14T13:32:27;1.33;;;0.50;;
5339;SDS011;2692;48.848;8.924;2022-10-14T13:39:56;1.40;;;0.70;;
5339;SDS011;2692;48.848;8.924;2022-10-14T13:42:24;6.43;;;1.50;;
5339;SDS011;2692;48.848;8.924;2022-10-14T13:44:53;1.77;;;0.90;;
5339;SDS011;2692;48.848;8.924;2022-10-14T13:47:28;1.77;;;0.80;;
5339;SDS011;2692;48.848;8.924;2022-10-14T13:49:53;2.60;;;0.63;;
5339;SDS011;2692;48.848;8.924;2022-10-14T13:52:23;2.53;;;1.60;;
5339;SDS011;2692;48.848;8.924;2022-10-14T13:55:03;3.00;;;1.90;;
5339;SDS011;2692;48.848;8.924;2022-10-14T13:57:29;3.53;;;1.03;;
5339;SDS011;2692;48.848;8.924;2022-10-14T13:59:55;12.80;;;0.70;;
5339;SDS011;2692;48.848;8.924;2022-10-14T14:02:23;2.00;;;1.10;;
5339;SDS011;2692;48.848;8.924;2022-10-14T14:04:50;2.83;;;0.50;;
5339;SDS011;2692;48.848;8.924;2022-10-14T14:07:18;2.37;;;0.90;;
5339;SDS011;2692;48.848;8.924;2022-10-14T14:09:49;5.57;;;0.90;;
5339;SDS011;2692;48.848;8.924;2022-10-14T14:12:16;1.10;;;0.47;;
5339;SDS011;2692;48.848;8.924;2022-10-14T14:14:43;1.00;;;0.40;;
5339;SDS011;2692;48.848;8.924;2022-10-14T14:17:16;2.90;;;1.03;;
5339;SDS011;2692;48.848;8.924;2022-10-14T14:19:44;1.57;;;0.50;;
5339;SDS011;2692;48.848;8.924;2022-10-14T14:22:26;1.93;;;0.73;;
5339;SDS011;2692;48.848;8.924;2022-10-14T14:27:58;1.20;;;0.50;;
5339;SDS011;2692;48.848;8.924;2022-10-14T14:30:26;1.20;;;0.50;;
5339;SDS011;2692;48.848;8.924;2022-10-14T14:32:57;1.10;;;0.40;;
5339;SDS011;2692;48.848;8.924;2022-10-14T14:35:23;1.43;;;0.67;;
5339;SDS011;2692;48.848;8.924;2022-10-14T14:37:49;1.70;;;0.83;;
5339;SDS011;2692;48.848;8.924;2022-10-14T14:40:21;2.40;;;1.00;;
5339;SDS011;2692;48.848;8.924;2022-10-14T14:42:50;2.03;;;0.80;;
5339;SDS011;2692;48.848;8.924;2022-10-14T14:45:18;2.27;;;0.77;;
5339;SDS011;2692;48.848;8.924;2022-10-14T14:48:00;1.23;;;0.60;;
5339;SDS011;2692;48.848;8.924;2022-10-14T14:50:31;1.77;;;0.70;;
5339;SDS011;2692;48.848;8.924;2022-10-14T14:53:02;1.40;;;0.70;;
5339;SDS011;2692;48.848;8.924;2022-10-14T14:55:42;2.00;;;0.80;;
5339;SDS011;2692;48.848;8.924;2022-10-14T15:01:17;1.60;;;0.90;;
5339;SDS011;2692;48.848;8.924;2022-10-14T15:06:32;1.97;;;0.70;;
5339;SDS011;2692;48.848;8.924;2022-10-14T15:08:59;1.80;;;0.70;;
5339;SDS011;2692;48.848;8.924;2022-10-14T15:11:34;2.83;;;1.47;;
5339;SDS011;2692;48.848;8.924;2022-10-14T15:13:59;2.07;;;0.60;;
5339;SDS011;2692;48.848;8.924;2022-10-14T15:16:31;2.80;;;1.23;;
